sensor_id;sensor_type;location;lat;lon;timestamp;temperature;humidity
48728;DHT22;34527;45.618;5.130;2023-06-26T00:02:12;21.40;99.90
48728;DHT22;34527;45.618;5.130;2023-06-26T00:04:37;21.50;99.90
48728;DHT22;34527;45.618;5.130;2023-06-26T00:07:04;21.50;99.90
48728;DHT22;34527;45.618;5.130;2023-06-26T00:09:30;21.40;99.90
48728;DHT22;34527;45.618;5.130;2023-06-26T00:11:56;21.50;99.90
48728;DHT22;34527;45.618;5.130;2023-06-26T00:14:22;21.50;99.90
48728;DHT22;34527;45.618;5.130;2023-06-26T00:16:48;21.50;99.90
48728;DHT22;34527;45.618;5.130;2023-06-26T00:19:16;21.50;99.90
48728;DHT22;34527;45.618;5.130;2023-06-26T00:21:42;21.40;99.90
48728;DHT22;34527;45.618;5.130;2023-06-26T00:24:14;21.40;99.90
48728;DHT22;34527;45.618;5.130;2023-06-26T00:26:40;21.40;99.90
48728;DHT22;34527;45.618;5.130;2023-06-26T00:29:05;21.40;99.90
48728;DHT22;34527;45.618;5.130;2023-06-26T00:31:31;21.40;99.90
48728;DHT22;34527;45.618;5.130;2023-06-26T00:33:57;21.30;99.90
48728;DHT22;34527;45.618;5.130;2023-06-26T00:36:22;21.20;99.90
48728;DHT22;34527;45.618;5.130;2023-06-26T00:38:52;21.20;99.90
48728;DHT22;34527;45.618;5.130;2023-06-26T00:41:18;21.10;99.90
48728;DHT22;34527;45.618;5.130;2023-06-26T00:43:44;21.10;99.90
48728;DHT22;34527;45.618;5.130;2023-06-26T00:46:12;21.10;99.90
48728;DHT22;34527;45.618;5.130;2023-06-26T00:48:39;21.10;99.90
48728;DHT22;34527;45.618;5.130;2023-06-26T00:51:06;21.10;99.90
48728;DHT22;34527;45.618;5.130;2023-06-26T00:53:32;21.00;99.90
48728;DHT22;34527;45.618;5.130;2023-06-26T00:55:59;21.00;99.90
48728;DHT22;34527;45.618;5.130;2023-06-26T00:58:25;21.00;99.90
48728;DHT22;34527;45.618;5.130;2023-06-26T01:00:52;21.00;99.90
48728;DHT22;34527;45.618;5.130;2023-06-26T01:03:18;21.00;99.90
48728;DHT22;34527;45.618;5.130;2023-06-26T01:05:44;21.00;99.90
48728;DHT22;34527;45.618;5.130;2023-06-26T01:08:12;21.00;99.90
48728;DHT22;34527;45.618;5.130;2023-06-26T01:10:39;20.90;99.90
48728;DHT22;34527;45.618;5.130;2023-06-26T01:13:05;20.90;99.90
48728;DHT22;34527;45.618;5.130;2023-06-26T01:15:30;20.80;99.90
48728;DHT22;34527;45.618;5.130;2023-06-26T01:17:57;20.70;99.90
48728;DHT22;34527;45.618;5.130;2023-06-26T01:20:25;20.80;99.90
48728;DHT22;34527;45.618;5.130;2023-06-26T01:23:07;20.80;99.90
48728;DHT22;34527;45.618;5.130;2023-06-26T01:25:56;20.80;99.90
48728;DHT22;34527;45.618;5.130;2023-06-26T01:28:27;20.70;99.90
48728;DHT22;34527;45.618;5.130;2023-06-26T01:30:54;20.60;99.90
48728;DHT22;34527;45.618;5.130;2023-06-26T01:33:20;20.50;99.90
48728;DHT22;34527;45.618;5.130;2023-06-26T01:35:45;20.60;99.90
48728;DHT22;34527;45.618;5.130;2023-06-26T01:38:21;20.60;99.90
48728;DHT22;34527;45.618;5.130;2023-06-26T01:40:51;20.60;99.90
48728;DHT22;34527;45.618;5.130;2023-06-26T01:43:37;20.70;99.90
48728;DHT22;34527;45.618;5.130;2023-06-26T01:46:19;20.60;99.90
48728;DHT22;34527;45.618;5.130;2023-06-26T01:51:33;20.50;99.90
48728;DHT22;34527;45.618;5.130;2023-06-26T01:54:00;20.40;99.90
48728;DHT22;34527;45.618;5.130;2023-06-26T01:56:28;20.30;99.90
48728;DHT22;34527;45.618;5.130;2023-06-26T01:58:55;20.30;99.90
48728;DHT22;34527;45.618;5.130;2023-06-26T02:01:21;20.30;99.90
48728;DHT22;34527;45.618;5.130;2023-06-26T02:03:47;20.40;99.90
48728;DHT22;34527;45.618;5.130;2023-06-26T02:06:13;20.40;99.90
48728;DHT22;34527;45.618;5.130;2023-06-26T02:08:39;20.30;99.90
48728;DHT22;34527;45.618;5.130;2023-06-26T02:11:04;20.30;99.90
48728;DHT22;34527;45.618;5.130;2023-06-26T02:13:30;20.30;99.90
48728;DHT22;34527;45.618;5.130;2023-06-26T02:15:56;20.30;99.90
48728;DHT22;34527;45.618;5.130;2023-06-26T02:18:22;20.20;99.90
48728;DHT22;34527;45.618;5.130;2023-06-26T02:20:49;20.30;99.90
48728;DHT22;34527;45.618;5.130;2023-06-26T02:23:15;20.30;99.90
48728;DHT22;34527;45.618;5.130;2023-06-26T02:25:41;20.40;99.90
48728;DHT22;34527;45.618;5.130;2023-06-26T02:28:06;20.20;99.90
48728;DHT22;34527;45.618;5.130;2023-06-26T02:30:32;20.20;99.90
48728;DHT22;34527;45.618;5.130;2023-06-26T02:32:58;20.10;99.90
48728;DHT22;34527;45.618;5.130;2023-06-26T02:35:23;20.10;99.90
48728;DHT22;34527;45.618;5.130;2023-06-26T02:37:49;20.10;99.90
48728;DHT22;34527;45.618;5.130;2023-06-26T02:40:14;20.10;99.90
48728;DHT22;34527;45.618;5.130;2023-06-26T02:42:40;20.10;99.90
48728;DHT22;34527;45.618;5.130;2023-06-26T02:45:06;20.10;99.90
48728;DHT22;34527;45.618;5.130;2023-06-26T02:47:32;20.10;99.90
48728;DHT22;34527;45.618;5.130;2023-06-26T02:49:57;20.10;99.90
48728;DHT22;34527;45.618;5.130;2023-06-26T02:52:23;20.00;99.90
48728;DHT22;34527;45.618;5.130;2023-06-26T02:54:48;20.10;99.90
48728;DHT22;34527;45.618;5.130;2023-06-26T02:57:14;20.10;99.90
48728;DHT22;34527;45.618;5.130;2023-06-26T02:59:40;19.90;99.90
48728;DHT22;34527;45.618;5.130;2023-06-26T03:02:06;20.00;99.90
48728;DHT22;34527;45.618;5.130;2023-06-26T03:04:31;19.90;99.90
48728;DHT22;34527;45.618;5.130;2023-06-26T03:06:57;19.90;99.90
48728;DHT22;34527;45.618;5.130;2023-06-26T03:09:22;19.90;99.90
48728;DHT22;34527;45.618;5.130;2023-06-26T03:11:48;19.90;99.90
48728;DHT22;34527;45.618;5.130;2023-06-26T03:14:14;19.80;99.90
48728;DHT22;34527;45.618;5.130;2023-06-26T03:16:40;19.80;99.90
48728;DHT22;34527;45.618;5.130;2023-06-26T03:19:05;19.70;99.90
48728;DHT22;34527;45.618;5.130;2023-06-26T03:21:32;19.80;99.90
48728;DHT22;34527;45.618;5.130;2023-06-26T03:23:58;19.80;99.90
48728;DHT22;34527;45.618;5.130;2023-06-26T03:26:23;19.80;99.90
48728;DHT22;34527;45.618;5.130;2023-06-26T03:28:53;19.90;99.90
48728;DHT22;34527;45.618;5.130;2023-06-26T03:31:19;19.80;99.90
48728;DHT22;34527;45.618;5.130;2023-06-26T03:33:44;19.90;99.90
48728;DHT22;34527;45.618;5.130;2023-06-26T03:36:10;19.90;99.90
48728;DHT22;34527;45.618;5.130;2023-06-26T03:38:36;19.90;99.90
48728;DHT22;34527;45.618;5.130;2023-06-26T03:41:02;19.90;99.90
48728;DHT22;34527;45.618;5.130;2023-06-26T03:43:27;19.90;99.90
48728;DHT22;34527;45.618;5.130;2023-06-26T03:45:53;20.00;99.90
48728;DHT22;34527;45.618;5.130;2023-06-26T03:48:19;19.90;99.90
48728;DHT22;34527;45.618;5.130;2023-06-26T03:50:45;20.00;99.90
48728;DHT22;34527;45.618;5.130;2023-06-26T03:53:10;20.00;99.90
48728;DHT22;34527;45.618;5.130;2023-06-26T03:55:37;20.00;99.90
48728;DHT22;34527;45.618;5.130;2023-06-26T03:58:04;20.10;99.90
48728;DHT22;34527;45.618;5.130;2023-06-26T04:00:29;20.10;99.90
48728;DHT22;34527;45.618;5.130;2023-06-26T04:02:55;20.20;99.90
48728;DHT22;34527;45.618;5.130;2023-06-26T04:05:21;20.20;99.90
48728;DHT22;34527;45.618;5.130;2023-06-26T04:07:50;20.30;99.90
48728;DHT22;34527;45.618;5.130;2023-06-26T04:10:16;20.30;99.90
48728;DHT22;34527;45.618;5.130;2023-06-26T04:12:41;20.40;99.90
48728;DHT22;34527;45.618;5.130;2023-06-26T04:15:07;20.50;99.90
48728;DHT22;34527;45.618;5.130;2023-06-26T04:17:33;20.60;99.90
48728;DHT22;34527;45.618;5.130;2023-06-26T04:19:58;20.60;99.90
48728;DHT22;34527;45.618;5.130;2023-06-26T04:22:24;20.60;99.90
48728;DHT22;34527;45.618;5.130;2023-06-26T04:24:51;20.60;99.90
48728;DHT22;34527;45.618;5.130;2023-06-26T04:27:17;20.60;99.90
48728;DHT22;34527;45.618;5.130;2023-06-26T04:29:43;20.60;99.90
48728;DHT22;34527;45.618;5.130;2023-06-26T04:32:09;20.70;99.90
48728;DHT22;34527;45.618;5.130;2023-06-26T04:34:35;20.70;99.90
48728;DHT22;34527;45.618;5.130;2023-06-26T04:37:02;20.70;99.90
48728;DHT22;34527;45.618;5.130;2023-06-26T04:39:29;20.80;99.90
48728;DHT22;34527;45.618;5.130;2023-06-26T04:41:55;20.70;99.90
48728;DHT22;34527;45.618;5.130;2023-06-26T04:44:21;20.70;99.90
48728;DHT22;34527;45.618;5.130;2023-06-26T04:46:46;20.70;99.90
48728;DHT22;34527;45.618;5.130;2023-06-26T04:49:12;20.80;99.90
48728;DHT22;34527;45.618;5.130;2023-06-26T04:51:37;20.80;99.90
48728;DHT22;34527;45.618;5.130;2023-06-26T04:54:06;20.70;99.90
48728;DHT22;34527;45.618;5.130;2023-06-26T04:56:33;20.70;99.90
48728;DHT22;34527;45.618;5.130;2023-06-26T04:58:59;20.80;99.90
48728;DHT22;34527;45.618;5.130;2023-06-26T05:01:24;20.80;99.90
48728;DHT22;34527;45.618;5.130;2023-06-26T05:03:50;20.90;99.90
48728;DHT22;34527;45.618;5.130;2023-06-26T05:06:15;20.90;99.90
48728;DHT22;34527;45.618;5.130;2023-06-26T05:08:41;21.00;99.90
48728;DHT22;34527;45.618;5.130;2023-06-26T05:11:07;20.90;99.90
48728;DHT22;34527;45.618;5.130;2023-06-26T05:13:32;21.00;99.90
48728;DHT22;34527;45.618;5.130;2023-06-26T05:15:58;21.00;99.90
48728;DHT22;34527;45.618;5.130;2023-06-26T05:18:23;21.10;99.90
48728;DHT22;34527;45.618;5.130;2023-06-26T05:20:49;21.20;99.90
48728;DHT22;34527;45.618;5.130;2023-06-26T05:23:16;21.20;99.90
48728;DHT22;34527;45.618;5.130;2023-06-26T05:25:42;21.30;99.90
48728;DHT22;34527;45.618;5.130;2023-06-26T05:28:08;21.40;99.90
48728;DHT22;34527;45.618;5.130;2023-06-26T05:30:36;21.40;99.90
48728;DHT22;34527;45.618;5.130;2023-06-26T05:33:03;21.40;99.90
48728;DHT22;34527;45.618;5.130;2023-06-26T05:35:29;21.50;99.90
48728;DHT22;34527;45.618;5.130;2023-06-26T05:37:56;21.50;99.90
48728;DHT22;34527;45.618;5.130;2023-06-26T05:40:22;21.60;99.90
48728;DHT22;34527;45.618;5.130;2023-06-26T05:42:49;21.70;99.90
48728;DHT22;34527;45.618;5.130;2023-06-26T05:45:15;21.80;99.90
48728;DHT22;34527;45.618;5.130;2023-06-26T05:47:41;21.80;99.90
48728;DHT22;34527;45.618;5.130;2023-06-26T05:50:08;21.90;99.90
48728;DHT22;34527;45.618;5.130;2023-06-26T05:52:34;22.00;99.90
48728;DHT22;34527;45.618;5.130;2023-06-26T05:55:01;22.00;99.90
48728;DHT22;34527;45.618;5.130;2023-06-26T05:57:27;22.10;99.90
48728;DHT22;34527;45.618;5.130;2023-06-26T05:59:54;22.20;99.90
48728;DHT22;34527;45.618;5.130;2023-06-26T06:02:20;22.30;99.90
48728;DHT22;34527;45.618;5.130;2023-06-26T06:04:45;22.30;99.90
48728;DHT22;34527;45.618;5.130;2023-06-26T06:07:11;22.40;99.90
48728;DHT22;34527;45.618;5.130;2023-06-26T06:09:37;22.50;99.90
48728;DHT22;34527;45.618;5.130;2023-06-26T06:12:04;22.60;99.90
48728;DHT22;34527;45.618;5.130;2023-06-26T06:14:31;22.60;99.90
48728;DHT22;34527;45.618;5.130;2023-06-26T06:16:57;22.70;99.90
48728;DHT22;34527;45.618;5.130;2023-06-26T06:19:22;22.70;99.90
48728;DHT22;34527;45.618;5.130;2023-06-26T06:21:48;22.80;99.90
48728;DHT22;34527;45.618;5.130;2023-06-26T06:24:14;22.80;99.90
48728;DHT22;34527;45.618;5.130;2023-06-26T06:26:39;22.90;99.90
48728;DHT22;34527;45.618;5.130;2023-06-26T06:29:05;23.00;99.90
48728;DHT22;34527;45.618;5.130;2023-06-26T06:31:31;23.00;99.90
48728;DHT22;34527;45.618;5.130;2023-06-26T06:33:57;23.10;99.90
48728;DHT22;34527;45.618;5.130;2023-06-26T06:36:23;23.20;99.90
48728;DHT22;34527;45.618;5.130;2023-06-26T06:38:48;23.30;99.90
48728;DHT22;34527;45.618;5.130;2023-06-26T06:41:14;23.40;99.90
48728;DHT22;34527;45.618;5.130;2023-06-26T06:43:40;23.40;99.90
48728;DHT22;34527;45.618;5.130;2023-06-26T06:46:06;23.50;99.90
48728;DHT22;34527;45.618;5.130;2023-06-26T06:48:32;23.50;99.90
48728;DHT22;34527;45.618;5.130;2023-06-26T06:50:57;23.60;99.90
48728;DHT22;34527;45.618;5.130;2023-06-26T06:53:23;23.60;99.90
48728;DHT22;34527;45.618;5.130;2023-06-26T06:55:49;23.70;99.90
48728;DHT22;34527;45.618;5.130;2023-06-26T06:58:15;23.70;99.90
48728;DHT22;34527;45.618;5.130;2023-06-26T07:00:48;23.80;99.90
48728;DHT22;34527;45.618;5.130;2023-06-26T07:03:13;23.90;99.90
48728;DHT22;34527;45.618;5.130;2023-06-26T07:05:41;23.90;99.90
48728;DHT22;34527;45.618;5.130;2023-06-26T07:08:07;24.00;99.90
48728;DHT22;34527;45.618;5.130;2023-06-26T07:10:32;24.10;99.90
48728;DHT22;34527;45.618;5.130;2023-06-26T07:12:58;24.10;99.90
48728;DHT22;34527;45.618;5.130;2023-06-26T07:15:23;24.20;99.90
48728;DHT22;34527;45.618;5.130;2023-06-26T07:17:49;24.20;99.90
48728;DHT22;34527;45.618;5.130;2023-06-26T07:20:14;24.20;99.90
48728;DHT22;34527;45.618;5.130;2023-06-26T07:22:41;24.30;99.90
48728;DHT22;34527;45.618;5.130;2023-06-26T07:25:07;24.30;99.90
48728;DHT22;34527;45.618;5.130;2023-06-26T07:27:39;24.30;99.90
48728;DHT22;34527;45.618;5.130;2023-06-26T07:30:06;24.30;99.90
48728;DHT22;34527;45.618;5.130;2023-06-26T07:32:34;24.30;99.90
48728;DHT22;34527;45.618;5.130;2023-06-26T07:35:00;24.40;99.90
48728;DHT22;34527;45.618;5.130;2023-06-26T07:37:25;24.40;99.90
48728;DHT22;34527;45.618;5.130;2023-06-26T07:39:51;24.40;99.90
48728;DHT22;34527;45.618;5.130;2023-06-26T07:42:16;24.40;99.90
48728;DHT22;34527;45.618;5.130;2023-06-26T07:44:42;24.50;99.90
48728;DHT22;34527;45.618;5.130;2023-06-26T07:47:08;24.50;99.90
48728;DHT22;34527;45.618;5.130;2023-06-26T07:49:34;24.60;99.90
48728;DHT22;34527;45.618;5.130;2023-06-26T07:52:00;24.60;99.90
48728;DHT22;34527;45.618;5.130;2023-06-26T07:54:26;24.60;99.90
48728;DHT22;34527;45.618;5.130;2023-06-26T07:57:00;24.70;99.90
48728;DHT22;34527;45.618;5.130;2023-06-26T07:59:27;24.60;99.90
48728;DHT22;34527;45.618;5.130;2023-06-26T08:01:54;24.70;99.90
48728;DHT22;34527;45.618;5.130;2023-06-26T08:04:21;24.80;99.90
48728;DHT22;34527;45.618;5.130;2023-06-26T08:06:51;24.90;99.90
48728;DHT22;34527;45.618;5.130;2023-06-26T08:09:17;24.90;99.90
48728;DHT22;34527;45.618;5.130;2023-06-26T08:11:44;25.00;99.90
48728;DHT22;34527;45.618;5.130;2023-06-26T08:14:10;25.10;99.90
48728;DHT22;34527;45.618;5.130;2023-06-26T08:16:38;25.10;99.90
48728;DHT22;34527;45.618;5.130;2023-06-26T08:19:03;25.20;99.90
48728;DHT22;34527;45.618;5.130;2023-06-26T08:21:29;25.20;99.90
48728;DHT22;34527;45.618;5.130;2023-06-26T08:23:54;25.20;99.90
48728;DHT22;34527;45.618;5.130;2023-06-26T08:26:20;25.20;99.90
48728;DHT22;34527;45.618;5.130;2023-06-26T08:28:45;25.30;99.90
48728;DHT22;34527;45.618;5.130;2023-06-26T08:31:12;25.30;99.90
48728;DHT22;34527;45.618;5.130;2023-06-26T08:33:37;25.30;99.90
48728;DHT22;34527;45.618;5.130;2023-06-26T08:36:03;25.30;99.90
48728;DHT22;34527;45.618;5.130;2023-06-26T08:38:29;25.40;99.90
48728;DHT22;34527;45.618;5.130;2023-06-26T08:40:54;25.40;99.90
48728;DHT22;34527;45.618;5.130;2023-06-26T08:43:20;25.40;99.90
48728;DHT22;34527;45.618;5.130;2023-06-26T08:45:47;25.50;99.90
48728;DHT22;34527;45.618;5.130;2023-06-26T08:48:17;25.60;99.90
48728;DHT22;34527;45.618;5.130;2023-06-26T08:50:43;25.60;99.90
48728;DHT22;34527;45.618;5.130;2023-06-26T08:53:36;25.80;99.90
48728;DHT22;34527;45.618;5.130;2023-06-26T08:56:06;25.90;99.90
48728;DHT22;34527;45.618;5.130;2023-06-26T08:58:32;25.90;99.90
48728;DHT22;34527;45.618;5.130;2023-06-26T09:00:58;26.00;99.90
48728;DHT22;34527;45.618;5.130;2023-06-26T09:03:24;25.90;99.90
48728;DHT22;34527;45.618;5.130;2023-06-26T09:05:51;25.90;99.90
48728;DHT22;34527;45.618;5.130;2023-06-26T09:08:16;25.90;99.90
48728;DHT22;34527;45.618;5.130;2023-06-26T09:10:42;25.90;99.90
48728;DHT22;34527;45.618;5.130;2023-06-26T09:13:08;25.90;99.90
48728;DHT22;34527;45.618;5.130;2023-06-26T09:15:43;26.00;99.90
48728;DHT22;34527;45.618;5.130;2023-06-26T09:18:09;26.00;99.90
48728;DHT22;34527;45.618;5.130;2023-06-26T09:20:35;26.10;99.90
48728;DHT22;34527;45.618;5.130;2023-06-26T09:23:01;26.20;99.90
48728;DHT22;34527;45.618;5.130;2023-06-26T09:25:28;26.30;99.90
48728;DHT22;34527;45.618;5.130;2023-06-26T09:27:55;26.30;99.90
48728;DHT22;34527;45.618;5.130;2023-06-26T09:30:21;26.30;99.90
48728;DHT22;34527;45.618;5.130;2023-06-26T09:32:47;26.30;99.90
48728;DHT22;34527;45.618;5.130;2023-06-26T09:35:13;26.50;99.90
48728;DHT22;34527;45.618;5.130;2023-06-26T09:37:39;26.50;99.90
48728;DHT22;34527;45.618;5.130;2023-06-26T09:40:05;26.40;99.90
48728;DHT22;34527;45.618;5.130;2023-06-26T09:42:32;26.40;99.90
48728;DHT22;34527;45.618;5.130;2023-06-26T09:44:57;26.50;99.90
48728;DHT22;34527;45.618;5.130;2023-06-26T09:47:23;26.40;99.90
48728;DHT22;34527;45.618;5.130;2023-06-26T09:49:49;26.50;99.90
48728;DHT22;34527;45.618;5.130;2023-06-26T09:52:17;26.50;99.90
48728;DHT22;34527;45.618;5.130;2023-06-26T09:54:43;26.60;99.90
48728;DHT22;34527;45.618;5.130;2023-06-26T09:57:12;26.60;99.90
48728;DHT22;34527;45.618;5.130;2023-06-26T09:59:39;26.60;99.90
48728;DHT22;34527;45.618;5.130;2023-06-26T10:02:06;26.60;99.90
48728;DHT22;34527;45.618;5.130;2023-06-26T10:04:33;26.50;99.90
48728;DHT22;34527;45.618;5.130;2023-06-26T10:07:01;26.60;99.90
48728;DHT22;34527;45.618;5.130;2023-06-26T10:09:30;26.60;99.90
48728;DHT22;34527;45.618;5.130;2023-06-26T10:12:06;26.80;99.90
48728;DHT22;34527;45.618;5.130;2023-06-26T10:14:37;26.80;99.90
48728;DHT22;34527;45.618;5.130;2023-06-26T10:17:10;26.80;99.90
48728;DHT22;34527;45.618;5.130;2023-06-26T10:19:38;26.60;99.90
48728;DHT22;34527;45.618;5.130;2023-06-26T10:22:05;26.60;99.90
48728;DHT22;34527;45.618;5.130;2023-06-26T10:24:33;26.60;99.90
48728;DHT22;34527;45.618;5.130;2023-06-26T10:27:16;26.60;99.90
48728;DHT22;34527;45.618;5.130;2023-06-26T10:29:44;26.70;99.90
48728;DHT22;34527;45.618;5.130;2023-06-26T10:32:13;26.90;99.90
48728;DHT22;34527;45.618;5.130;2023-06-26T10:34:39;27.00;99.90
48728;DHT22;34527;45.618;5.130;2023-06-26T10:37:05;26.80;99.90
48728;DHT22;34527;45.618;5.130;2023-06-26T10:42:11;26.80;99.90
48728;DHT22;34527;45.618;5.130;2023-06-26T10:44:42;26.80;99.90
48728;DHT22;34527;45.618;5.130;2023-06-26T10:47:08;26.80;99.90
48728;DHT22;34527;45.618;5.130;2023-06-26T10:49:36;26.70;99.90
48728;DHT22;34527;45.618;5.130;2023-06-26T10:52:02;26.90;99.90
48728;DHT22;34527;45.618;5.130;2023-06-26T10:54:34;27.00;99.90
48728;DHT22;34527;45.618;5.130;2023-06-26T10:57:01;26.90;99.90
48728;DHT22;34527;45.618;5.130;2023-06-26T10:59:28;27.00;99.90
48728;DHT22;34527;45.618;5.130;2023-06-26T11:02:00;26.90;99.90
48728;DHT22;34527;45.618;5.130;2023-06-26T11:04:45;26.90;99.90
48728;DHT22;34527;45.618;5.130;2023-06-26T11:07:16;27.10;99.90
48728;DHT22;34527;45.618;5.130;2023-06-26T11:10:00;27.10;99.90
48728;DHT22;34527;45.618;5.130;2023-06-26T11:12:43;27.20;99.90
48728;DHT22;34527;45.618;5.130;2023-06-26T11:17:36;27.00;99.90
48728;DHT22;34527;45.618;5.130;2023-06-26T11:20:03;27.00;99.90
48728;DHT22;34527;45.618;5.130;2023-06-26T11:22:31;27.00;99.90
48728;DHT22;34527;45.618;5.130;2023-06-26T11:24:59;27.00;99.90
48728;DHT22;34527;45.618;5.130;2023-06-26T11:30:02;26.80;99.90
48728;DHT22;34527;45.618;5.130;2023-06-26T11:32:27;26.80;99.90
48728;DHT22;34527;45.618;5.130;2023-06-26T11:34:54;26.90;99.90
48728;DHT22;34527;45.618;5.130;2023-06-26T11:37:21;27.10;99.90
48728;DHT22;34527;45.618;5.130;2023-06-26T11:39:46;27.10;99.90
48728;DHT22;34527;45.618;5.130;2023-06-26T11:42:12;27.20;99.90
48728;DHT22;34527;45.618;5.130;2023-06-26T11:44:44;27.20;99.90
48728;DHT22;34527;45.618;5.130;2023-06-26T11:47:18;27.20;99.90
48728;DHT22;34527;45.618;5.130;2023-06-26T11:49:44;27.30;99.90
48728;DHT22;34527;45.618;5.130;2023-06-26T11:52:10;27.20;99.90
48728;DHT22;34527;45.618;5.130;2023-06-26T11:54:36;27.10;99.90
48728;DHT22;34527;45.618;5.130;2023-06-26T11:57:01;27.20;99.90
48728;DHT22;34527;45.618;5.130;2023-06-26T11:59:49;27.30;99.90
48728;DHT22;34527;45.618;5.130;2023-06-26T12:02:15;27.40;99.90
48728;DHT22;34527;45.618;5.130;2023-06-26T12:04:42;27.40;99.90
48728;DHT22;34527;45.618;5.130;2023-06-26T12:07:09;27.40;99.90
48728;DHT22;34527;45.618;5.130;2023-06-26T12:09:43;27.60;99.90
48728;DHT22;34527;45.618;5.130;2023-06-26T12:12:14;27.60;99.90
48728;DHT22;34527;45.618;5.130;2023-06-26T12:14:41;27.60;99.90
48728;DHT22;34527;45.618;5.130;2023-06-26T12:17:12;27.70;99.90
48728;DHT22;34527;45.618;5.130;2023-06-26T12:19:48;27.60;99.90
48728;DHT22;34527;45.618;5.130;2023-06-26T12:22:14;27.70;99.90
48728;DHT22;34527;45.618;5.130;2023-06-26T12:24:40;27.70;99.90
48728;DHT22;34527;45.618;5.130;2023-06-26T12:27:10;27.50;99.90
48728;DHT22;34527;45.618;5.130;2023-06-26T12:29:37;27.60;99.90
48728;DHT22;34527;45.618;5.130;2023-06-26T12:32:03;27.60;99.90
48728;DHT22;34527;45.618;5.130;2023-06-26T12:34:32;27.60;99.90
48728;DHT22;34527;45.618;5.130;2023-06-26T12:37:08;27.70;99.90
48728;DHT22;34527;45.618;5.130;2023-06-26T12:39:56;27.70;99.90
48728;DHT22;34527;45.618;5.130;2023-06-26T12:42:27;27.70;99.90
48728;DHT22;34527;45.618;5.130;2023-06-26T12:44:54;27.80;99.90
48728;DHT22;34527;45.618;5.130;2023-06-26T12:47:27;27.90;99.90
48728;DHT22;34527;45.618;5.130;2023-06-26T12:49:53;27.80;99.90
48728;DHT22;34527;45.618;5.130;2023-06-26T12:52:19;27.90;99.90
48728;DHT22;34527;45.618;5.130;2023-06-26T12:54:46;27.90;99.90
48728;DHT22;34527;45.618;5.130;2023-06-26T12:57:12;27.90;99.90
48728;DHT22;34527;45.618;5.130;2023-06-26T12:59:39;27.90;99.90
48728;DHT22;34527;45.618;5.130;2023-06-26T13:02:05;28.00;99.90
48728;DHT22;34527;45.618;5.130;2023-06-26T13:04:32;27.90;99.90
48728;DHT22;34527;45.618;5.130;2023-06-26T13:06:58;27.80;99.90
48728;DHT22;34527;45.618;5.130;2023-06-26T13:09:24;27.90;99.90
48728;DHT22;34527;45.618;5.130;2023-06-26T13:11:53;28.20;99.90
48728;DHT22;34527;45.618;5.130;2023-06-26T13:14:19;28.10;99.90
48728;DHT22;34527;45.618;5.130;2023-06-26T13:16:47;28.10;99.90
48728;DHT22;34527;45.618;5.130;2023-06-26T13:19:12;28.10;99.90
48728;DHT22;34527;45.618;5.130;2023-06-26T13:21:38;28.20;99.90
48728;DHT22;34527;45.618;5.130;2023-06-26T13:24:04;28.30;99.90
48728;DHT22;34527;45.618;5.130;2023-06-26T13:26:30;28.20;99.90
48728;DHT22;34527;45.618;5.130;2023-06-26T13:28:57;28.20;99.90
48728;DHT22;34527;45.618;5.130;2023-06-26T13:31:22;28.30;99.90
48728;DHT22;34527;45.618;5.130;2023-06-26T13:33:48;28.50;99.90
48728;DHT22;34527;45.618;5.130;2023-06-26T13:36:15;28.40;99.90
48728;DHT22;34527;45.618;5.130;2023-06-26T13:38:41;28.40;99.90
48728;DHT22;34527;45.618;5.130;2023-06-26T13:41:07;28.40;99.90
48728;DHT22;34527;45.618;5.130;2023-06-26T13:43:33;28.50;99.90
48728;DHT22;34527;45.618;5.130;2023-06-26T13:45:58;28.50;99.90
48728;DHT22;34527;45.618;5.130;2023-06-26T13:48:24;28.40;99.90
48728;DHT22;34527;45.618;5.130;2023-06-26T13:50:50;28.40;99.90
48728;DHT22;34527;45.618;5.130;2023-06-26T13:53:16;28.40;99.90
48728;DHT22;34527;45.618;5.130;2023-06-26T13:55:42;28.50;99.90
48728;DHT22;34527;45.618;5.130;2023-06-26T13:58:08;28.50;99.90
48728;DHT22;34527;45.618;5.130;2023-06-26T14:00:35;28.50;99.90
48728;DHT22;34527;45.618;5.130;2023-06-26T14:03:02;28.50;99.90
48728;DHT22;34527;45.618;5.130;2023-06-26T14:05:31;28.60;99.90
48728;DHT22;34527;45.618;5.130;2023-06-26T14:07:57;28.50;99.90
48728;DHT22;34527;45.618;5.130;2023-06-26T14:10:23;28.50;99.90
48728;DHT22;34527;45.618;5.130;2023-06-26T14:12:49;28.40;99.90
48728;DHT22;34527;45.618;5.130;2023-06-26T14:15:15;28.40;99.90
48728;DHT22;34527;45.618;5.130;2023-06-26T14:17:40;28.40;99.90
48728;DHT22;34527;45.618;5.130;2023-06-26T14:20:08;28.40;99.90
48728;DHT22;34527;45.618;5.130;2023-06-26T14:22:41;28.40;99.90
48728;DHT22;34527;45.618;5.130;2023-06-26T14:25:08;28.20;99.90
48728;DHT22;34527;45.618;5.130;2023-06-26T14:27:34;28.40;99.90
48728;DHT22;34527;45.618;5.130;2023-06-26T14:30:00;28.40;99.90
48728;DHT22;34527;45.618;5.130;2023-06-26T14:32:25;28.20;99.90
48728;DHT22;34527;45.618;5.130;2023-06-26T14:34:51;28.20;99.90
48728;DHT22;34527;45.618;5.130;2023-06-26T14:37:17;28.10;99.90
48728;DHT22;34527;45.618;5.130;2023-06-26T14:39:44;28.30;99.90
48728;DHT22;34527;45.618;5.130;2023-06-26T14:42:10;28.30;99.90
48728;DHT22;34527;45.618;5.130;2023-06-26T14:44:35;28.30;99.90
48728;DHT22;34527;45.618;5.130;2023-06-26T14:47:01;28.40;99.90
48728;DHT22;34527;45.618;5.130;2023-06-26T14:49:27;28.50;99.90
48728;DHT22;34527;45.618;5.130;2023-06-26T14:51:52;28.30;99.90
48728;DHT22;34527;45.618;5.130;2023-06-26T14:54:18;28.40;99.90
48728;DHT22;34527;45.618;5.130;2023-06-26T14:56:44;28.30;99.90
48728;DHT22;34527;45.618;5.130;2023-06-26T14:59:11;28.30;99.90
48728;DHT22;34527;45.618;5.130;2023-06-26T15:01:38;28.30;99.90
48728;DHT22;34527;45.618;5.130;2023-06-26T15:04:04;28.30;99.90
48728;DHT22;34527;45.618;5.130;2023-06-26T15:06:29;28.30;99.90
48728;DHT22;34527;45.618;5.130;2023-06-26T15:08:55;28.30;99.90
48728;DHT22;34527;45.618;5.130;2023-06-26T15:11:20;28.30;99.90
48728;DHT22;34527;45.618;5.130;2023-06-26T15:13:46;28.20;99.90
48728;DHT22;34527;45.618;5.130;2023-06-26T15:16:12;28.20;99.90
48728;DHT22;34527;45.618;5.130;2023-06-26T15:18:37;28.20;99.90
48728;DHT22;34527;45.618;5.130;2023-06-26T15:21:03;28.20;99.90
48728;DHT22;34527;45.618;5.130;2023-06-26T15:23:29;28.10;99.90
48728;DHT22;34527;45.618;5.130;2023-06-26T15:25:55;28.10;99.90
48728;DHT22;34527;45.618;5.130;2023-06-26T15:28:20;28.00;99.90
48728;DHT22;34527;45.618;5.130;2023-06-26T15:30:46;28.00;99.90
48728;DHT22;34527;45.618;5.130;2023-06-26T15:33:12;28.10;99.90
48728;DHT22;34527;45.618;5.130;2023-06-26T15:35:38;28.00;99.90
48728;DHT22;34527;45.618;5.130;2023-06-26T15:38:04;28.00;99.90
48728;DHT22;34527;45.618;5.130;2023-06-26T15:40:30;27.90;99.90